createdAt,value
2023-01-26T00:01:40.949Z,98096.78
2023-01-26T00:04:07.447Z,98102.44
2023-01-26T00:06:34.066Z,98101.66
2023-01-26T00:09:00.565Z,98096.19
2023-01-26T00:11:27.991Z,98095.97
2023-01-26T00:13:55.438Z,98090.81
2023-01-26T00:16:22.090Z,98093.03
2023-01-26T00:18:48.701Z,98097.50
2023-01-26T00:21:16.883Z,98101.94
2023-01-26T00:23:43.515Z,98093.91
2023-01-26T00:26:10.846Z,98094.75
2023-01-26T00:28:39.091Z,98101.28
2023-01-26T00:31:13.766Z,98095.78
2023-01-26T00:33:40.324Z,98103.66
2023-01-26T00:36:09.913Z,98110.00
2023-01-26T00:38:36.348Z,98099.38
2023-01-26T00:41:02.855Z,98098.66
2023-01-26T00:43:29.362Z,98099.72
2023-01-26T00:45:55.871Z,98091.97
2023-01-26T00:48:24.551Z,98090.81
2023-01-26T00:50:52.092Z,98099.38
2023-01-26T00:53:18.623Z,98092.22
2023-01-26T00:55:45.670Z,98078.66
2023-01-26T00:58:12.114Z,98080.72
2023-01-26T01:00:38.896Z,98083.72
2023-01-26T01:03:05.940Z,98082.00
2023-01-26T01:05:32.897Z,98081.84
2023-01-26T01:07:59.391Z,98075.34
2023-01-26T01:10:27.586Z,98073.53
2023-01-26T01:12:54.284Z,98077.53
2023-01-26T01:15:22.938Z,98074.34
2023-01-26T01:17:49.408Z,98066.78
2023-01-26T01:20:16.007Z,98065.78
2023-01-26T01:22:42.614Z,98064.72
2023-01-26T01:25:09.248Z,98072.34
2023-01-26T01:27:35.966Z,98075.84
2023-01-26T01:30:07.532Z,98068.94
2023-01-26T01:32:35.083Z,98068.81
2023-01-26T01:35:01.957Z,98071.44
2023-01-26T01:37:29.047Z,98067.47
2023-01-26T01:39:55.505Z,98060.53
2023-01-26T01:42:22.412Z,98065.34
2023-01-26T01:45:08.808Z,98056.22
2023-01-26T01:47:35.506Z,98058.09
2023-01-26T01:50:04.304Z,98056.44
2023-01-26T01:52:31.587Z,98053.97
2023-01-26T01:55:16.523Z,98056.78
2023-01-26T01:57:51.698Z,98051.50
2023-01-26T02:00:20.353Z,98037.06
2023-01-26T02:03:11.653Z,98041.72
2023-01-26T02:05:48.634Z,98038.78
2023-01-26T02:08:17.193Z,98037.84
2023-01-26T02:10:46.329Z,98036.78
2023-01-26T02:13:13.451Z,98032.31
2023-01-26T02:15:42.179Z,98028.53
2023-01-26T02:18:11.008Z,98024.22
2023-01-26T02:20:40.470Z,98021.97
2023-01-26T02:23:20.179Z,98017.00
2023-01-26T02:25:46.637Z,98016.63
2023-01-26T02:28:13.242Z,98006.50
2023-01-26T02:30:39.700Z,98006.78
2023-01-26T02:33:06.180Z,98005.91
2023-01-26T02:35:34.045Z,97994.53
2023-01-26T02:38:01.434Z,97996.50
2023-01-26T02:40:43.031Z,97989.03
2023-01-26T02:43:09.917Z,97979.81
2023-01-26T02:45:38.567Z,97975.06
2023-01-26T02:48:08.004Z,97977.72
2023-01-26T02:50:35.066Z,97969.81
2023-01-26T02:53:02.104Z,97967.47
2023-01-26T02:55:29.966Z,97972.50
2023-01-26T02:58:07.593Z,97968.44
2023-01-26T03:00:41.839Z,97964.34
2023-01-26T03:03:21.437Z,97949.69
2023-01-26T03:05:50.277Z,97953.31
2023-01-26T03:08:17.568Z,97959.03
2023-01-26T03:10:44.510Z,97949.41
2023-01-26T03:13:11.357Z,97946.88
2023-01-26T03:15:44.000Z,97936.78
2023-01-26T03:18:35.046Z,97936.53
2023-01-26T03:21:21.039Z,97936.81
2023-01-26T03:24:06.995Z,97937.00
2023-01-26T03:26:52.663Z,97932.41
2023-01-26T03:29:19.241Z,97924.28
2023-01-26T03:31:46.413Z,97927.69
2023-01-26T03:34:13.210Z,97918.88
2023-01-26T03:36:40.187Z,97918.00
2023-01-26T03:39:31.775Z,97917.84
2023-01-26T03:42:17.441Z,97916.03
2023-01-26T03:45:02.739Z,97901.88
2023-01-26T03:47:49.714Z,97905.09
2023-01-26T03:50:34.962Z,97906.06
2023-01-26T03:53:20.119Z,97902.16
2023-01-26T03:56:05.408Z,97897.28
2023-01-26T03:58:33.351Z,97897.97
2023-01-26T04:00:59.892Z,97900.72
2023-01-26T04:03:45.751Z,97888.97
2023-01-26T04:06:31.001Z,97895.81
2023-01-26T04:08:57.526Z,97890.09
2023-01-26T04:11:23.987Z,97892.84
2023-01-26T04:14:09.022Z,97885.91
2023-01-26T04:16:54.104Z,97884.63
2023-01-26T04:19:39.667Z,97880.03
2023-01-26T04:22:06.963Z,97881.66
2023-01-26T04:24:35.566Z,97882.50
2023-01-26T04:27:01.990Z,97872.09
2023-01-26T04:29:34.455Z,97875.88
2023-01-26T04:32:01.257Z,97875.31
2023-01-26T04:34:28.100Z,97873.97
2023-01-26T04:36:54.890Z,97868.94
2023-01-26T04:39:24.709Z,97863.72
2023-01-26T04:41:54.852Z,97863.06
2023-01-26T04:44:21.327Z,97858.81
2023-01-26T04:46:48.866Z,97863.25
2023-01-26T04:49:15.892Z,97859.19
2023-01-26T04:51:42.632Z,97858.69
2023-01-26T04:54:09.608Z,97863.56
2023-01-26T04:56:39.843Z,97855.97
2023-01-26T04:59:07.017Z,97856.31
2023-01-26T05:01:35.552Z,97855.94
2023-01-26T05:04:05.644Z,97854.59
2023-01-26T05:06:33.293Z,97869.97
2023-01-26T05:08:59.853Z,97854.97
2023-01-26T05:11:27.331Z,97856.13
2023-01-26T05:14:04.517Z,97853.28
2023-01-26T05:16:58.504Z,97853.28
2023-01-26T05:19:46.948Z,97857.91
2023-01-26T05:22:19.001Z,97852.69
2023-01-26T05:25:05.642Z,97858.00
2023-01-26T05:27:53.497Z,97855.16
2023-01-26T05:30:20.536Z,97853.06
2023-01-26T05:32:48.856Z,97847.22
2023-01-26T05:35:15.453Z,97843.78
2023-01-26T05:37:42.429Z,97858.00
2023-01-26T05:40:10.537Z,97851.56
2023-01-26T05:42:37.498Z,97853.28
2023-01-26T05:45:13.513Z,97852.13
2023-01-26T05:47:40.270Z,97850.59
2023-01-26T05:50:06.921Z,97849.09
2023-01-26T05:52:34.649Z,97853.53
2023-01-26T05:55:01.778Z,97847.00
2023-01-26T05:57:28.264Z,97854.19
2023-01-26T05:59:59.719Z,97841.72
2023-01-26T06:02:29.601Z,97848.94
2023-01-26T06:04:56.265Z,97852.47
2023-01-26T06:07:22.950Z,97848.59
2023-01-26T06:10:15.466Z,97850.00
2023-01-26T06:12:55.175Z,97856.22
2023-01-26T06:15:40.647Z,97847.53
2023-01-26T06:18:07.997Z,97848.84
2023-01-26T06:20:35.687Z,97850.97
2023-01-26T06:23:04.379Z,97846.09
2023-01-26T06:25:34.183Z,97853.06
2023-01-26T06:28:01.324Z,97842.56
2023-01-26T06:30:29.044Z,97842.91
2023-01-26T06:33:00.557Z,97835.00
2023-01-26T06:35:28.175Z,97840.13
2023-01-26T06:37:59.230Z,97836.78
2023-01-26T06:40:25.688Z,97837.94
2023-01-26T06:42:52.180Z,97834.03
2023-01-26T06:45:20.613Z,97838.59
2023-01-26T06:47:48.944Z,97836.78
2023-01-26T06:50:20.221Z,97836.41
2023-01-26T06:52:50.572Z,97835.84
2023-01-26T06:55:41.680Z,97838.97
2023-01-26T06:58:34.222Z,97832.41
2023-01-26T07:01:24.981Z,97836.59
2023-01-26T07:03:52.698Z,97831.19
2023-01-26T07:06:19.132Z,97830.44
2023-01-26T07:08:45.573Z,97830.34
2023-01-26T07:11:12.913Z,97832.06
2023-01-26T07:13:39.886Z,97826.47
2023-01-26T07:16:07.696Z,97827.69
2023-01-26T07:18:34.271Z,97828.59
2023-01-26T07:21:04.240Z,97826.31
2023-01-26T07:23:30.794Z,97824.28
2023-01-26T07:25:57.571Z,97824.47
2023-01-26T07:28:25.804Z,97821.41
2023-01-26T07:30:53.320Z,97826.72
2023-01-26T07:33:19.787Z,97822.94
2023-01-26T07:35:46.244Z,97815.13
2023-01-26T07:38:12.763Z,97828.22
2023-01-26T07:40:39.254Z,97824.44
2023-01-26T07:43:05.662Z,97828.44
2023-01-26T07:45:52.888Z,97823.34
2023-01-26T07:48:23.274Z,97829.59
2023-01-26T07:50:50.280Z,97824.75
2023-01-26T07:53:19.435Z,97833.06
2023-01-26T07:55:46.405Z,97826.53
2023-01-26T07:58:12.990Z,97829.00
2023-01-26T08:00:39.919Z,97829.75
2023-01-26T08:03:06.699Z,97832.78
2023-01-26T08:05:33.305Z,97840.22
2023-01-26T08:08:00.671Z,97838.28
2023-01-26T08:10:31.415Z,97830.97
2023-01-26T08:13:01.227Z,97841.34
2023-01-26T08:15:28.386Z,97842.88
2023-01-26T08:17:55.148Z,97841.81
2023-01-26T08:20:21.985Z,97838.50
2023-01-26T08:22:48.477Z,97834.81
2023-01-26T08:25:14.968Z,97833.00
2023-01-26T08:27:41.629Z,97840.78
2023-01-26T08:30:08.942Z,97835.63
2023-01-26T08:32:35.659Z,97845.97
2023-01-26T08:35:02.091Z,97843.22
2023-01-26T08:37:28.515Z,97844.19
2023-01-26T08:39:55.032Z,97840.22
2023-01-26T08:42:22.779Z,97849.91
2023-01-26T08:44:49.388Z,97843.25
2023-01-26T08:47:15.823Z,97840.03
2023-01-26T08:49:42.242Z,97846.66
2023-01-26T08:52:08.775Z,97845.50
2023-01-26T08:54:35.284Z,97841.16
2023-01-26T08:57:01.710Z,97845.59
2023-01-26T08:59:28.240Z,97844.97
2023-01-26T09:01:55.694Z,97844.59
2023-01-26T09:04:22.310Z,97845.31
2023-01-26T09:06:48.831Z,97837.41
2023-01-26T09:09:15.446Z,97834.91
2023-01-26T09:11:42.006Z,97842.19
2023-01-26T09:14:08.539Z,97839.13
2023-01-26T09:16:35.024Z,97845.59
2023-01-26T09:19:02.403Z,97846.47
2023-01-26T09:21:28.946Z,97856.72
2023-01-26T09:23:55.903Z,97851.56
2023-01-26T09:26:22.387Z,97858.31
2023-01-26T09:28:52.474Z,97855.59
2023-01-26T09:31:19.152Z,97854.91
2023-01-26T09:33:45.665Z,97859.09
2023-01-26T09:36:12.546Z,97851.31
2023-01-26T09:38:40.032Z,97850.63
2023-01-26T09:41:25.206Z,97850.25
2023-01-26T09:44:00.094Z,97857.47
2023-01-26T09:46:40.560Z,97854.44
2023-01-26T09:49:11.147Z,97850.84
2023-01-26T09:51:38.998Z,97842.28
2023-01-26T09:54:15.966Z,97844.75
2023-01-26T09:56:42.782Z,97835.09
2023-01-26T09:59:32.303Z,97837.47
2023-01-26T10:02:17.652Z,97829.19
2023-01-26T10:04:46.806Z,97833.00
2023-01-26T10:07:14.313Z,97824.94
2023-01-26T10:09:50.344Z,97826.16
2023-01-26T10:12:16.786Z,97816.47
2023-01-26T10:14:46.655Z,97815.69
2023-01-26T10:17:15.930Z,97816.25
2023-01-26T10:19:55.019Z,97804.13
2023-01-26T10:22:30.326Z,97802.63
2023-01-26T10:24:57.112Z,97796.78
2023-01-26T10:27:23.639Z,97793.75
2023-01-26T10:29:50.071Z,97790.22
2023-01-26T10:32:17.784Z,97788.72
2023-01-26T10:34:46.366Z,97780.00
2023-01-26T10:37:42.192Z,97779.44
2023-01-26T10:40:09.553Z,97777.09
2023-01-26T10:42:36.358Z,97777.09
2023-01-26T10:45:07.183Z,97769.47
2023-01-26T10:47:33.678Z,97764.38
2023-01-26T10:50:19.861Z,97754.91
2023-01-26T10:52:59.879Z,97748.19
2023-01-26T10:55:26.857Z,97751.66
2023-01-26T10:57:53.488Z,97754.94
2023-01-26T11:00:22.965Z,97741.16
2023-01-26T11:02:54.314Z,97736.47
2023-01-26T11:05:20.880Z,97727.56
2023-01-26T11:07:49.408Z,97731.09
2023-01-26T11:10:15.831Z,97730.81
2023-01-26T11:12:42.303Z,97724.94
2023-01-26T11:15:27.589Z,97718.38
2023-01-26T11:18:02.071Z,97712.69
2023-01-26T11:20:49.162Z,97714.44
2023-01-26T11:23:18.314Z,97712.13
2023-01-26T11:26:03.981Z,97710.31
2023-01-26T11:28:44.766Z,97702.75
2023-01-26T11:31:20.148Z,97698.94
2023-01-26T11:33:46.573Z,97695.13
2023-01-26T11:36:12.979Z,97692.31
2023-01-26T11:38:40.967Z,97696.78
2023-01-26T11:41:32.453Z,97689.91
2023-01-26T11:43:58.863Z,97677.56
2023-01-26T11:46:39.660Z,97677.59
2023-01-26T11:49:14.998Z,97673.59
2023-01-26T11:52:00.116Z,97670.84
2023-01-26T11:54:49.859Z,97668.53
2023-01-26T11:57:16.281Z,97662.13
2023-01-26T11:59:46.430Z,97650.00
2023-01-26T12:02:31.888Z,97652.56
2023-01-26T12:05:03.255Z,97648.81
2023-01-26T12:07:30.838Z,97638.69
2023-01-26T12:10:00.028Z,97637.97
2023-01-26T12:12:39.876Z,97640.19
2023-01-26T12:15:11.623Z,97631.47
2023-01-26T12:17:44.420Z,97633.59
2023-01-26T12:20:17.055Z,97630.59
2023-01-26T12:22:49.140Z,97624.66
2023-01-26T12:25:35.042Z,97622.44
2023-01-26T12:28:11.931Z,97621.66
2023-01-26T12:30:57.125Z,97618.91
2023-01-26T12:33:24.047Z,97612.75
2023-01-26T12:35:53.478Z,97609.56
2023-01-26T12:38:23.194Z,97604.44
2023-01-26T12:41:05.789Z,97611.25
2023-01-26T12:43:51.052Z,97600.06
2023-01-26T12:46:17.703Z,97603.59
2023-01-26T12:48:50.529Z,97596.78
2023-01-26T12:51:30.375Z,97610.38
2023-01-26T12:53:56.887Z,97601.34
2023-01-26T12:56:37.879Z,97592.81
2023-01-26T12:59:09.302Z,97597.84
2023-01-26T13:01:39.564Z,97594.84
2023-01-26T13:04:10.981Z,97589.81
2023-01-26T13:06:37.456Z,97586.31
2023-01-26T13:09:19.154Z,97587.31
2023-01-26T13:11:53.587Z,97589.41
2023-01-26T13:14:27.878Z,97587.81
2023-01-26T13:16:54.707Z,97589.63
2023-01-26T13:19:39.843Z,97588.25
2023-01-26T13:22:26.272Z,97585.47
2023-01-26T13:24:55.699Z,97585.06
2023-01-26T13:27:37.394Z,97586.44
2023-01-26T13:30:24.062Z,97588.13
2023-01-26T13:32:50.500Z,97584.03
2023-01-26T13:35:18.782Z,97584.84
2023-01-26T13:37:53.374Z,97581.81
2023-01-26T13:40:22.815Z,97584.81
2023-01-26T13:43:00.307Z,97579.06
2023-01-26T13:45:26.713Z,97583.47
2023-01-26T13:47:54.231Z,97580.41
2023-01-26T13:50:34.679Z,97574.00
2023-01-26T13:53:01.137Z,97576.97
2023-01-26T13:55:30.557Z,97579.97
2023-01-26T13:58:12.325Z,97577.66
2023-01-26T14:00:38.823Z,97589.53
2023-01-26T14:03:05.367Z,97582.47
2023-01-26T14:05:32.299Z,97587.41
2023-01-26T14:07:59.602Z,97576.13
2023-01-26T14:10:28.298Z,97578.06
2023-01-26T14:12:58.827Z,97580.59
2023-01-26T14:15:27.176Z,97576.78
2023-01-26T14:17:58.628Z,97582.06
2023-01-26T14:20:26.918Z,97580.97
2023-01-26T14:23:19.583Z,97584.56
2023-01-26T14:25:48.162Z,97587.81
2023-01-26T14:28:15.823Z,97588.09
2023-01-26T14:30:42.836Z,97585.75
2023-01-26T14:33:16.685Z,97591.84
2023-01-26T14:35:54.388Z,97588.03
2023-01-26T14:38:21.083Z,97592.78
2023-01-26T14:40:51.829Z,97598.31
2023-01-26T14:43:18.928Z,97596.31
2023-01-26T14:45:58.371Z,97599.75
2023-01-26T14:48:27.793Z,97597.47
2023-01-26T14:50:54.312Z,97592.72
2023-01-26T14:53:24.729Z,97600.97
2023-01-26T14:55:52.202Z,97603.06
2023-01-26T14:58:29.448Z,97598.41
2023-01-26T15:00:58.425Z,97592.91
2023-01-26T15:03:27.663Z,97599.50
2023-01-26T15:06:04.017Z,97598.31
2023-01-26T15:08:30.444Z,97596.97
2023-01-26T15:11:17.159Z,97595.59
2023-01-26T15:13:47.535Z,97596.13
2023-01-26T15:16:16.311Z,97592.94
2023-01-26T15:18:43.241Z,97592.09
2023-01-26T15:21:20.642Z,97599.44
2023-01-26T15:23:51.352Z,97590.59
2023-01-26T15:26:23.722Z,97594.94
2023-01-26T15:28:51.478Z,97602.19
2023-01-26T15:31:30.392Z,97600.16
2023-01-26T15:33:58.647Z,97604.44
2023-01-26T15:36:25.053Z,97605.38
2023-01-26T15:38:57.799Z,97608.56
2023-01-26T15:41:24.311Z,97603.56
2023-01-26T15:43:50.776Z,97606.13
2023-01-26T15:46:17.214Z,97607.38
2023-01-26T15:48:43.667Z,97603.16
2023-01-26T15:51:14.038Z,97609.75
2023-01-26T15:53:40.927Z,97601.69
2023-01-26T15:56:11.776Z,97606.13
2023-01-26T15:58:38.487Z,97605.28
2023-01-26T16:01:05.174Z,97599.88
2023-01-26T16:03:31.675Z,97606.56
2023-01-26T16:05:58.172Z,97608.28
2023-01-26T16:08:24.611Z,97603.38
2023-01-26T16:10:51.213Z,97603.38
2023-01-26T16:13:18.777Z,97606.34
2023-01-26T16:15:49.302Z,97610.19
2023-01-26T16:18:15.855Z,97609.75
2023-01-26T16:20:43.326Z,97610.81
2023-01-26T16:23:16.853Z,97610.38
2023-01-26T16:25:43.386Z,97615.50
2023-01-26T16:28:09.879Z,97612.09
2023-01-26T16:30:36.447Z,97614.22
2023-01-26T16:33:03.031Z,97605.91
2023-01-26T16:35:29.598Z,97609.84
2023-01-26T16:37:56.199Z,97609.75
2023-01-26T16:40:22.667Z,97612.84
2023-01-26T16:42:53.640Z,97612.31
2023-01-26T16:45:21.522Z,97617.09
2023-01-26T16:47:49.555Z,97620.81
2023-01-26T16:50:16.075Z,97612.50
2023-01-26T16:52:42.551Z,97610.81
2023-01-26T16:55:12.824Z,97609.53
2023-01-26T16:57:41.455Z,97608.25
2023-01-26T17:00:13.557Z,97607.28
2023-01-26T17:02:41.146Z,97609.13
2023-01-26T17:05:09.929Z,97602.19
2023-01-26T17:07:36.554Z,97606.56
2023-01-26T17:10:03.032Z,97609.94
2023-01-26T17:12:29.458Z,97608.25
2023-01-26T17:14:55.924Z,97611.44
2023-01-26T17:17:22.378Z,97604.75
2023-01-26T17:19:48.813Z,97608.34
2023-01-26T17:22:15.503Z,97611.84
2023-01-26T17:24:42.774Z,97612.47
2023-01-26T17:27:10.383Z,97607.50
2023-01-26T17:29:36.880Z,97615.69
2023-01-26T17:32:03.462Z,97607.41
2023-01-26T17:34:29.957Z,97613.78
2023-01-26T17:36:57.308Z,97603.38
2023-01-26T17:39:24.247Z,97608.88
2023-01-26T17:41:50.738Z,97603.56
2023-01-26T17:44:17.266Z,97595.16
2023-01-26T17:46:43.697Z,97600.47
2023-01-26T17:49:10.114Z,97602.28
2023-01-26T17:51:36.568Z,97608.75
2023-01-26T17:54:03.007Z,97617.25
2023-01-26T17:56:30.872Z,97615.91
2023-01-26T17:58:57.323Z,97609.78
2023-01-26T18:01:24.789Z,97611.16
2023-01-26T18:03:51.378Z,97617.34
2023-01-26T18:06:17.845Z,97619.25
2023-01-26T18:08:44.310Z,97610.13
2023-01-26T18:11:12.158Z,97619.63
2023-01-26T18:13:38.704Z,97613.88
2023-01-26T18:16:06.575Z,97615.94
2023-01-26T18:18:33.064Z,97610.94
2023-01-26T18:21:09.964Z,97608.16
2023-01-26T18:23:36.390Z,97604.75
2023-01-26T18:26:04.883Z,97611.94
2023-01-26T18:28:31.442Z,97610.19
2023-01-26T18:30:58.510Z,97617.56
2023-01-26T18:33:25.012Z,97612.63
2023-01-26T18:35:51.427Z,97612.00
2023-01-26T18:38:17.903Z,97607.84
2023-01-26T18:40:44.334Z,97613.16
2023-01-26T18:43:10.745Z,97614.91
2023-01-26T18:45:40.152Z,97610.06
2023-01-26T18:48:06.644Z,97607.19
2023-01-26T18:50:33.079Z,97609.06
2023-01-26T18:52:59.569Z,97615.50
2023-01-26T18:55:26.266Z,97608.75
2023-01-26T18:57:54.214Z,97615.47
2023-01-26T19:00:21.021Z,97605.50
2023-01-26T19:02:47.500Z,97600.31
2023-01-26T19:05:14.321Z,97598.13
2023-01-26T19:07:41.453Z,97596.72
2023-01-26T19:10:08.296Z,97599.84
2023-01-26T19:12:34.820Z,97605.94
2023-01-26T19:15:01.978Z,97600.13
2023-01-26T19:17:29.132Z,97609.97
2023-01-26T19:19:55.587Z,97601.53
2023-01-26T19:22:22.124Z,97594.53
2023-01-26T19:24:48.567Z,97592.84
2023-01-26T19:27:15.104Z,97591.66
2023-01-26T19:29:41.532Z,97594.03
2023-01-26T19:32:08.048Z,97594.03
2023-01-26T19:34:35.088Z,97593.00
2023-01-26T19:37:01.604Z,97594.53
2023-01-26T19:39:28.020Z,97600.25
2023-01-26T19:41:54.483Z,97593.63
2023-01-26T19:44:20.913Z,97595.13
2023-01-26T19:46:50.316Z,97588.09
2023-01-26T19:49:17.481Z,97590.03
2023-01-26T19:51:43.971Z,97593.13
2023-01-26T19:54:10.438Z,97585.91
2023-01-26T19:56:37.183Z,97593.13
2023-01-26T19:59:05.389Z,97588.91
2023-01-26T20:01:32.690Z,97587.63
2023-01-26T20:04:03.720Z,97585.75
2023-01-26T20:06:31.571Z,97577.94
2023-01-26T20:08:58.741Z,97584.94
2023-01-26T20:11:26.655Z,97585.13
2023-01-26T20:14:00.856Z,97587.41
2023-01-26T20:16:28.267Z,97588.09
2023-01-26T20:18:55.318Z,97587.69
2023-01-26T20:21:22.481Z,97583.00
2023-01-26T20:23:55.733Z,97584.22
2023-01-26T20:26:23.491Z,97577.19
2023-01-26T20:28:50.075Z,97583.59
2023-01-26T20:31:18.010Z,97587.00
2023-01-26T20:33:47.605Z,97581.94
2023-01-26T20:36:16.459Z,97574.81
2023-01-26T20:38:42.937Z,97580.28
2023-01-26T20:41:10.417Z,97579.44
2023-01-26T20:43:39.468Z,97579.31
2023-01-26T20:46:09.458Z,97578.78
2023-01-26T20:48:35.996Z,97584.97
2023-01-26T20:51:22.742Z,97582.41
2023-01-26T20:53:50.152Z,97589.00
2023-01-26T20:56:17.425Z,97580.97
2023-01-26T20:58:44.043Z,97578.19
2023-01-26T21:01:12.194Z,97579.91
2023-01-26T21:03:39.235Z,97574.59
2023-01-26T21:06:06.326Z,97577.28
2023-01-26T21:08:32.867Z,97578.59
2023-01-26T21:11:00.696Z,97577.72
2023-01-26T21:13:27.968Z,97582.19
2023-01-26T21:15:54.791Z,97582.19
2023-01-26T21:18:21.622Z,97578.94
2023-01-26T21:20:57.148Z,97576.16
2023-01-26T21:23:24.102Z,97572.56
2023-01-26T21:25:50.610Z,97580.47
2023-01-26T21:28:17.055Z,97573.06
2023-01-26T21:30:43.590Z,97577.22
2023-01-26T21:33:10.973Z,97575.34
2023-01-26T21:35:37.418Z,97573.88
2023-01-26T21:38:03.907Z,97571.25
2023-01-26T21:40:30.334Z,97572.56
2023-01-26T21:42:56.737Z,97574.50
2023-01-26T21:45:41.834Z,97579.13
2023-01-26T21:48:27.079Z,97575.03
2023-01-26T21:51:14.996Z,97568.16
2023-01-26T21:53:41.677Z,97574.72
2023-01-26T21:56:08.365Z,97567.28
2023-01-26T21:58:53.547Z,97569.09
2023-01-26T22:01:23.624Z,97570.81
2023-01-26T22:03:50.507Z,97566.25
2023-01-26T22:06:17.401Z,97573.06
2023-01-26T22:08:43.870Z,97566.13
2023-01-26T22:11:10.287Z,97558.16
2023-01-26T22:13:36.887Z,97566.66
2023-01-26T22:16:04.657Z,97564.53
2023-01-26T22:18:31.344Z,97564.53
2023-01-26T22:20:57.880Z,97562.28
2023-01-26T22:23:24.325Z,97568.38
2023-01-26T22:25:50.782Z,97563.06
2023-01-26T22:28:17.319Z,97570.91
2023-01-26T22:30:43.866Z,97568.38
2023-01-26T22:33:10.360Z,97573.38
2023-01-26T22:35:36.765Z,97566.25
2023-01-26T22:38:03.248Z,97563.53
2023-01-26T22:40:29.671Z,97561.47
2023-01-26T22:42:56.157Z,97564.31
2023-01-26T22:45:23.119Z,97558.81
2023-01-26T22:47:50.889Z,97567.97
2023-01-26T22:50:19.256Z,97561.47
2023-01-26T22:52:47.105Z,97561.38
2023-01-26T22:55:14.067Z,97561.13
2023-01-26T22:57:40.672Z,97544.19
2023-01-26T23:00:07.586Z,97559.22
2023-01-26T23:02:34.654Z,97548.19
2023-01-26T23:05:01.111Z,97548.19
2023-01-26T23:07:27.642Z,97548.19
2023-01-26T23:09:54.075Z,97549.91
2023-01-26T23:12:20.550Z,97545.00
2023-01-26T23:14:47.048Z,97547.44
2023-01-26T23:17:13.537Z,97539.28
2023-01-26T23:19:40.024Z,97546.50
2023-01-26T23:22:06.527Z,97549.78
2023-01-26T23:24:32.970Z,97547.13
2023-01-26T23:26:59.420Z,97552.44
2023-01-26T23:29:25.855Z,97538.84
2023-01-26T23:31:52.379Z,97545.81
2023-01-26T23:34:18.974Z,97543.72
2023-01-26T23:36:45.425Z,97539.88
2023-01-26T23:39:11.842Z,97538.53
2023-01-26T23:41:38.248Z,97539.69
2023-01-26T23:44:04.854Z,97531.19
2023-01-26T23:46:31.360Z,97534.25
2023-01-26T23:48:57.912Z,97531.78
2023-01-26T23:51:24.523Z,97532.75
2023-01-26T23:53:50.937Z,97523.09
2023-01-26T23:56:17.691Z,97528.22
2023-01-26T23:58:44.487Z,97529.66
